Time;durP1;ratioP1;P1;durP2;ratioP2;P2;SDS_P1;SDS_P2;PMS_P1;PMS_P2;Temp;Humidity;BMP_temperature;BMP_pressure;BME280_temperature;BME280_humidity;BME280_pressure;Samples;Min_cycle;Max_cycle;Signal;HPM_P1;HPM_P2
2023/05/01 00:00:55;;;;;;;7.93;5.68;;;9.30;99.90;;;;;;5072479;28;20052;-73
2023/05/01 00:03:20;;;;;;;8.55;6.10;;;9.40;99.90;;;;;;5071997;28;20110;-72
2023/05/01 00:05:47;;;;;;;9.52;5.90;;;9.30;99.90;;;;;;5073884;28;20059;-73
2023/05/01 00:08:13;;;;;;;7.78;5.90;;;9.30;99.90;;;;;;5072056;28;20420;-73
2023/05/01 00:10:38;;;;;;;7.70;6.15;;;9.30;99.90;;;;;;5056437;28;20064;-73
2023/05/01 00:13:05;;;;;;;9.68;6.85;;;9.20;99.90;;;;;;5060590;28;20040;-72
2023/05/01 00:15:32;;;;;;;10.30;6.20;;;9.20;99.90;;;;;;5063062;28;20047;-73
2023/05/01 00:17:57;;;;;;;8.90;5.90;;;9.20;99.90;;;;;;5042003;28;20250;-73
2023/05/01 00:20:27;;;;;;;7.13;5.40;;;9.10;99.90;;;;;;5075238;28;20041;-73
2023/05/01 00:22:54;;;;;;;9.20;6.22;;;9.20;99.90;;;;;;5074464;28;20048;-74
2023/05/01 00:25:20;;;;;;;10.77;7.03;;;9.20;99.90;;;;;;5061939;28;20620;-73
2023/05/01 00:27:47;;;;;;;8.68;6.43;;;9.20;99.90;;;;;;5071758;28;20131;-73
2023/05/01 00:30:13;;;;;;;8.23;6.50;;;9.10;99.90;;;;;;5075244;28;20055;-73
2023/05/01 00:32:38;;;;;;;8.15;6.40;;;9.10;99.90;;;;;;5071154;28;20337;-73
2023/05/01 00:35:04;;;;;;;9.15;6.50;;;9.10;99.90;;;;;;5061458;28;20098;-73
2023/05/01 00:37:31;;;;;;;8.43;6.57;;;9.00;99.90;;;;;;5073889;28;20056;-73
2023/05/01 00:39:56;;;;;;;9.70;6.80;;;9.00;99.90;;;;;;5059711;28;20490;-73
2023/05/01 00:42:22;;;;;;;9.35;6.45;;;8.90;99.90;;;;;;5041855;28;20102;-73
2023/05/01 00:44:48;;;;;;;10.18;6.63;;;8.90;99.90;;;;;;5070923;28;20047;-73
2023/05/01 00:47:14;;;;;;;10.35;7.30;;;8.90;99.90;;;;;;5039367;28;20036;-73
2023/05/01 00:49:45;;;;;;;9.68;7.00;;;8.80;99.90;;;;;;5059851;28;20134;-73
2023/05/01 00:52:10;;;;;;;;;;;8.80;99.90;;;;;;5055731;28;20113;-72
2023/05/01 00:54:36;;;;;;;9.07;6.90;;;8.60;99.90;;;;;;5075223;28;19928;-72
2023/05/01 00:57:02;;;;;;;9.27;7.05;;;8.60;99.90;;;;;;5069920;28;20044;-71
2023/05/01 00:59:29;;;;;;;10.40;6.78;;;8.50;99.90;;;;;;5074252;28;20044;-72
2023/05/01 01:01:55;;;;;;;10.15;7.65;;;8.50;99.90;;;;;;5069105;28;20060;-72
2023/05/01 01:04:21;;;;;;;10.45;7.30;;;8.50;99.90;;;;;;5059070;28;20044;-71
2023/05/01 01:06:53;;;;;;;9.82;6.80;;;8.40;99.90;;;;;;5074503;28;20044;-72
2023/05/01 01:10:05;;;;;;;9.82;7.13;;;8.40;99.90;;;;;;5063983;28;20475;-71
2023/05/01 01:13:00;;;;;;;9.55;6.57;;;8.40;99.90;;;;;;5042466;28;20056;-72
2023/05/01 01:15:38;;;;;;;9.70;6.72;;;8.30;99.90;;;;;;5055230;28;20501;-72
2023/05/01 01:18:11;;;;;;;9.43;6.88;;;8.20;99.90;;;;;;5050462;28;20405;-72
2023/05/01 01:20:52;;;;;;;8.52;6.90;;;8.20;99.90;;;;;;5064831;28;20499;-72
2023/05/01 01:23:34;;;;;;;11.13;6.03;;;8.20;99.90;;;;;;5067115;28;20101;-72
2023/05/01 01:26:19;;;;;;;10.75;6.85;;;8.10;99.90;;;;;;5069551;28;20044;-72
2023/05/01 01:28:51;;;;;;;8.43;6.57;;;8.00;99.90;;;;;;5074323;28;20499;-72
2023/05/01 01:31:25;;;;;;;9.13;6.43;;;7.90;99.90;;;;;;5076039;28;20048;-72
2023/05/01 01:34:13;;;;;;;10.60;7.25;;;7.90;99.90;;;;;;5061649;28;20229;-72
2023/05/01 01:36:46;;;;;;;10.70;7.70;;;7.80;99.90;;;;;;5073164;28;20063;-72
2023/05/01 01:39:37;;;;;;;8.90;6.63;;;7.70;99.90;;;;;;5052788;28;20044;-72
2023/05/01 01:42:11;;;;;;;9.00;7.20;;;7.80;99.90;;;;;;5086024;28;20056;-72
2023/05/01 01:44:51;;;;;;;11.32;7.63;;;7.70;99.90;;;;;;5064132;28;20067;-72
2023/05/01 01:47:19;;;;;;;9.10;7.30;;;7.70;99.90;;;;;;5057118;28;20043;-71
2023/05/01 01:49:48;;;;;;;9.55;7.18;;;7.70;99.90;;;;;;5070107;28;20063;-71
2023/05/01 01:52:17;;;;;;;11.77;8.40;;;7.70;99.90;;;;;;5068918;28;20380;-71
2023/05/01 01:54:57;;;;;;;8.02;7.13;;;7.70;99.90;;;;;;5075671;28;20569;-71
2023/05/01 01:57:24;;;;;;;11.10;7.55;;;7.70;99.90;;;;;;5074970;28;20044;-71
2023/05/01 01:59:51;;;;;;;11.07;7.43;;;7.70;99.90;;;;;;5070562;28;20059;-71
2023/05/01 02:02:20;;;;;;;10.48;7.28;;;7.60;99.90;;;;;;5056177;28;20044;-72
2023/05/01 02:04:48;;;;;;;9.60;6.88;;;7.60;99.90;;;;;;5050235;28;20176;-72
2023/05/01 02:07:15;;;;;;;9.73;7.45;;;7.60;99.90;;;;;;5068138;28;20117;-72
2023/05/01 02:09:43;;;;;;;10.68;7.90;;;7.50;99.90;;;;;;5059861;28;20495;-72
2023/05/01 02:12:11;;;;;;;9.15;6.80;;;7.40;99.90;;;;;;5038159;28;20188;-72
2023/05/01 02:14:37;;;;;;;8.52;7.15;;;7.40;99.90;;;;;;5050015;28;20036;-72
2023/05/01 02:17:04;;;;;;;9.35;7.75;;;7.40;99.90;;;;;;5055515;28;20040;-72
2023/05/01 02:19:32;;;;;;;10.57;7.85;;;7.40;99.90;;;;;;5057015;28;20252;-71
2023/05/01 02:22:00;;;;;;;9.45;7.60;;;7.40;99.90;;;;;;5054334;28;20059;-71
2023/05/01 02:24:28;;;;;;;9.60;7.50;;;7.40;99.90;;;;;;5064255;28;20104;-73
2023/05/01 02:27:02;;;;;;;11.13;7.88;;;7.40;99.90;;;;;;5072447;28;20047;-73
2023/05/01 02:29:28;;;;;;;10.70;8.02;;;7.40;99.90;;;;;;5071725;28;20099;-73
2023/05/01 02:31:54;;;;;;;9.57;7.60;;;7.40;99.90;;;;;;5028326;28;20079;-73
2023/05/01 02:34:21;;;;;;;9.82;7.63;;;7.40;99.90;;;;;;5056108;28;20052;-73
2023/05/01 02:36:46;;;;;;;9.07;7.82;;;7.40;99.90;;;;;;5040055;28;20495;-71
2023/05/01 02:39:12;;;;;;;9.90;7.88;;;7.40;99.90;;;;;;5046090;28;20094;-71
2023/05/01 02:41:39;;;;;;;10.55;7.80;;;7.40;99.90;;;;;;5053707;28;20044;-72
2023/05/01 02:44:08;;;;;;;8.85;7.55;;;7.40;99.90;;;;;;5023523;28;20399;-72
2023/05/01 02:46:36;;;;;;;13.82;8.70;;;7.40;99.90;;;;;;5071078;28;20502;-72
2023/05/01 02:49:02;;;;;;;11.68;9.00;;;7.30;99.90;;;;;;5039603;28;20052;-72
2023/05/01 02:51:30;;;;;;;12.25;8.32;;;7.30;99.90;;;;;;5055309;28;20109;-72
2023/05/01 02:53:58;;;;;;;9.27;7.63;;;7.30;99.90;;;;;;5070876;28;20573;-72
2023/05/01 02:56:28;;;;;;;12.32;9.23;;;7.30;99.90;;;;;;5054498;28;20127;-72
2023/05/01 02:58:57;;;;;;;9.77;7.80;;;7.40;99.90;;;;;;5067492;28;20048;-71
2023/05/01 03:01:26;;;;;;;11.30;8.30;;;7.30;99.90;;;;;;5071488;28;20074;-72
2023/05/01 03:03:52;;;;;;;11.93;8.05;;;7.30;99.90;;;;;;5054410;28;20298;-72
2023/05/01 03:06:18;;;;;;;10.60;7.95;;;7.40;99.90;;;;;;5070243;28;20152;-72
2023/05/01 03:08:44;;;;;;;11.43;8.30;;;7.40;99.90;;;;;;5038837;28;20071;-72
2023/05/01 03:11:10;;;;;;;9.70;8.35;;;7.40;99.90;;;;;;5055094;28;20214;-71
2023/05/01 03:13:35;;;;;;;10.80;8.48;;;7.30;99.90;;;;;;5044750;28;20060;-71
2023/05/01 03:16:03;;;;;;;11.32;7.38;;;7.30;99.90;;;;;;5055760;28;20044;-71
2023/05/01 03:18:29;;;;;;;9.60;7.50;;;7.30;99.90;;;;;;5037687;28;20375;-71
2023/05/01 03:20:55;;;;;;;10.80;8.23;;;7.30;99.90;;;;;;5071396;28;20051;-71
2023/05/01 03:23:22;;;;;;;8.65;7.75;;;7.30;99.90;;;;;;5056009;28;20040;-71
2023/05/01 03:25:49;;;;;;;11.52;8.60;;;7.30;99.90;;;;;;5056219;28;20272;-71
2023/05/01 03:28:15;;;;;;;9.75;7.45;;;7.30;99.90;;;;;;5043905;28;20236;-71
2023/05/01 03:30:41;;;;;;;10.45;7.72;;;7.30;99.90;;;;;;5069957;28;20040;-71
2023/05/01 03:33:07;;;;;;;13.80;8.68;;;7.30;99.90;;;;;;5067420;28;20066;-71
2023/05/01 03:35:33;;;;;;;9.13;7.72;;;7.30;99.90;;;;;;5074684;28;20510;-71
2023/05/01 03:37:59;;;;;;;10.05;7.70;;;7.20;99.90;;;;;;5037046;28;20040;-71
2023/05/01 03:40:24;;;;;;;10.98;7.65;;;7.20;99.90;;;;;;5054450;28;20047;-71
2023/05/01 03:42:50;;;;;;;11.60;7.72;;;7.20;99.90;;;;;;5053620;28;20044;-71
2023/05/01 03:45:16;;;;;;;8.65;7.68;;;7.20;99.90;;;;;;5053534;28;20541;-71
2023/05/01 03:47:42;;;;;;;12.55;8.85;;;7.20;99.90;;;;;;5049872;28;20656;-71
2023/05/01 03:50:08;;;;;;;11.88;8.85;;;7.20;99.90;;;;;;5058365;28;20036;-71
2023/05/01 03:52:34;;;;;;;10.80;8.85;;;7.20;99.90;;;;;;5041147;28;20040;-71
2023/05/01 03:54:59;;;;;;;10.43;8.20;;;7.10;99.90;;;;;;5074996;28;20086;-71
2023/05/01 03:57:26;;;;;;;10.73;8.70;;;7.10;99.90;;;;;;5049294;28;20040;-71
2023/05/01 03:59:53;;;;;;;11.05;9.10;;;7.00;99.90;;;;;;5038906;28;20040;-72
2023/05/01 04:02:21;;;;;;;10.98;9.38;;;7.00;99.90;;;;;;5043367;28;20076;-71
2023/05/01 04:04:47;;;;;;;9.93;8.75;;;6.90;99.90;;;;;;5075063;28;20119;-71
2023/05/01 04:07:13;;;;;;;13.48;9.57;;;6.80;99.90;;;;;;5042950;28;20036;-72
2023/05/01 04:09:39;;;;;;;14.98;9.13;;;6.80;99.90;;;;;;5041573;28;21004;-71
2023/05/01 04:12:05;;;;;;;10.85;8.52;;;6.70;99.90;;;;;;5055472;28;20128;-71
2023/05/01 04:14:31;;;;;;;11.48;9.13;;;6.70;99.90;;;;;;5044821;28;20087;-73
2023/05/01 04:16:57;;;;;;;11.52;8.88;;;6.60;99.90;;;;;;5072460;28;20067;-73
2023/05/01 04:19:23;;;;;;;10.32;9.10;;;6.60;99.90;;;;;;5061227;28;20071;-73
2023/05/01 04:21:49;;;;;;;10.48;8.73;;;6.50;99.90;;;;;;5079033;28;20052;-73
2023/05/01 04:24:15;;;;;;;11.43;9.60;;;6.50;99.90;;;;;;5078095;28;20882;-73
2023/05/01 04:26:42;;;;;;;11.60;9.10;;;6.40;99.90;;;;;;5050835;28;20135;-73
2023/05/01 04:29:08;;;;;;;11.45;9.50;;;6.40;99.90;;;;;;5053042;28;20189;-73
2023/05/01 04:31:34;;;;;;;11.95;9.73;;;6.40;99.90;;;;;;5075630;28;20175;-73
2023/05/01 04:34:00;;;;;;;14.27;10.35;;;6.40;99.90;;;;;;5076205;28;20127;-73
2023/05/01 04:36:26;;;;;;;13.95;10.60;;;6.40;99.90;;;;;;5041826;28;20077;-74
2023/05/01 04:38:52;;;;;;;12.90;10.50;;;6.40;99.90;;;;;;5058709;28;20055;-73
2023/05/01 04:41:18;;;;;;;16.90;11.32;;;6.40;99.90;;;;;;5046503;28;20055;-73
2023/05/01 04:43:44;;;;;;;13.68;10.77;;;6.50;99.90;;;;;;5079330;28;20305;-71
2023/05/01 04:46:09;;;;;;;13.25;10.40;;;6.50;99.90;;;;;;5059096;28;20533;-71
2023/05/01 04:48:35;;;;;;;13.52;10.40;;;6.60;99.90;;;;;;5036691;28;20044;-71
2023/05/01 04:51:02;;;;;;;14.13;10.75;;;6.60;99.90;;;;;;5075861;28;20059;-71
2023/05/01 04:53:28;;;;;;;13.63;10.75;;;6.60;99.90;;;;;;5020945;28;20051;-71
2023/05/01 04:55:54;;;;;;;13.05;10.65;;;6.70;99.90;;;;;;5047344;28;20398;-72
2023/05/01 04:58:20;;;;;;;14.93;11.00;;;6.70;99.90;;;;;;5017531;28;20044;-71
2023/05/01 05:00:46;;;;;;;14.38;11.43;;;6.80;99.90;;;;;;5077920;28;20052;-71
2023/05/01 05:03:11;;;;;;;12.95;11.05;;;6.80;99.90;;;;;;5044719;28;20062;-71
2023/05/01 05:05:37;;;;;;;12.45;10.48;;;6.80;99.90;;;;;;5044163;28;20044;-71
2023/05/01 05:08:03;;;;;;;14.05;11.52;;;6.80;99.90;;;;;;5059491;28;20190;-71
2023/05/01 05:10:29;;;;;;;15.90;11.23;;;6.90;99.90;;;;;;5029778;28;20044;-72
2023/05/01 05:12:55;;;;;;;14.18;10.95;;;6.90;99.90;;;;;;5053634;28;20048;-72
2023/05/01 05:15:21;;;;;;;13.73;11.07;;;6.90;99.90;;;;;;5051052;28;20051;-71
2023/05/01 05:17:47;;;;;;;14.82;11.10;;;7.00;99.90;;;;;;5046346;28;20189;-72
2023/05/01 05:20:14;;;;;;;13.88;11.18;;;7.00;99.90;;;;;;5057686;28;20422;-71
2023/05/01 05:22:40;;;;;;;14.27;11.13;;;7.10;99.90;;;;;;5045064;28;20048;-71
2023/05/01 05:25:08;;;;;;;13.40;11.40;;;7.20;99.90;;;;;;5042996;28;20044;-71
2023/05/01 05:27:36;;;;;;;12.95;10.63;;;7.30;99.90;;;;;;5047459;28;20483;-71
2023/05/01 05:30:07;;;;;;;15.40;11.13;;;7.30;99.90;;;;;;5044369;28;20123;-71
2023/05/01 05:32:33;;;;;;;13.00;10.10;;;7.40;99.90;;;;;;5058398;28;20051;-71
2023/05/01 05:34:59;;;;;;;12.30;10.23;;;7.50;99.90;;;;;;5072869;28;20043;-71
2023/05/01 05:37:25;;;;;;;12.25;10.68;;;7.50;99.90;;;;;;5061819;28;20036;-71
2023/05/01 05:39:51;;;;;;;13.13;9.75;;;7.60;99.90;;;;;;5042525;28;20043;-71
2023/05/01 05:42:17;;;;;;;14.45;10.85;;;7.70;99.90;;;;;;5075129;28;20459;-71
2023/05/01 05:44:42;;;;;;;13.07;9.50;;;7.80;99.90;;;;;;5076848;28;20048;-72
2023/05/01 05:47:08;;;;;;;12.68;9.75;;;7.90;99.90;;;;;;5074935;28;20104;-72
2023/05/01 05:49:34;;;;;;;12.38;9.68;;;8.00;99.90;;;;;;5077903;28;20062;-71
2023/05/01 05:52:00;;;;;;;15.00;9.52;;;8.20;99.90;;;;;;5074382;28;20036;-71
2023/05/01 05:54:26;;;;;;;13.80;9.63;;;8.10;99.90;;;;;;5039888;28;20090;-71
2023/05/01 05:56:51;;;;;;;11.95;9.00;;;8.30;99.90;;;;;;5057304;28;20157;-71
2023/05/01 05:59:17;;;;;;;13.80;8.82;;;8.30;99.90;;;;;;5042089;28;20052;-71
2023/05/01 06:01:43;;;;;;;12.70;10.35;;;8.50;99.90;;;;;;5074510;28;20043;-71
2023/05/01 06:04:10;;;;;;;12.90;9.57;;;8.60;99.90;;;;;;5057827;28;20600;-73
2023/05/01 06:06:36;;;;;;;11.75;9.10;;;8.70;99.90;;;;;;5058993;28;20040;-71
2023/05/01 06:09:02;;;;;;;17.35;9.48;;;8.70;99.90;;;;;;5058238;28;20043;-71
2023/05/01 06:11:28;;;;;;;10.65;8.68;;;8.80;99.90;;;;;;5048388;28;20124;-72
2023/05/01 06:13:54;;;;;;;10.52;8.80;;;8.90;99.90;;;;;;5050052;28;20127;-71
2023/05/01 06:16:20;;;;;;;10.85;8.80;;;9.00;99.90;;;;;;5041663;28;20040;-71
2023/05/01 06:18:46;;;;;;;10.82;8.32;;;9.10;99.90;;;;;;5040941;28;20055;-72
2023/05/01 06:21:11;;;;;;;12.02;8.30;;;9.20;99.90;;;;;;5072314;28;20092;-71
2023/05/01 06:23:37;;;;;;;10.57;8.40;;;9.30;99.90;;;;;;5055416;28;20075;-72
2023/05/01 06:26:03;;;;;;;12.40;8.52;;;9.40;99.90;;;;;;5074605;28;20079;-71
2023/05/01 06:28:29;;;;;;;12.02;8.55;;;9.50;99.90;;;;;;5041959;28;20134;-72
2023/05/01 06:30:55;;;;;;;12.95;8.30;;;9.60;99.90;;;;;;5049253;28;20037;-71
2023/05/01 06:33:20;;;;;;;10.77;7.93;;;9.80;99.90;;;;;;5045792;28;20044;-69
2023/05/01 06:35:47;;;;;;;11.45;7.75;;;9.90;99.90;;;;;;5055604;28;20044;-71
2023/05/01 06:38:12;;;;;;;10.48;7.72;;;10.00;99.90;;;;;;5048650;28;20052;-72
2023/05/01 06:40:39;;;;;;;9.88;6.95;;;10.10;99.90;;;;;;5023700;28;20047;-71
2023/05/01 06:43:05;;;;;;;13.18;7.30;;;10.20;99.90;;;;;;5071662;28;20078;-71
2023/05/01 06:45:31;;;;;;;10.88;6.90;;;10.40;99.90;;;;;;5059031;28;20040;-71
2023/05/01 06:47:56;;;;;;;10.45;7.50;;;10.50;99.90;;;;;;5039541;28;20665;-71
2023/05/01 06:50:22;;;;;;;10.60;6.60;;;10.60;99.90;;;;;;5039679;28;20047;-71
2023/05/01 06:52:48;;;;;;;10.02;6.45;;;10.80;99.90;;;;;;5068454;28;20129;-71
2023/05/01 06:55:14;;;;;;;10.30;5.80;;;10.90;99.90;;;;;;5055833;28;20087;-71
2023/05/01 06:57:40;;;;;;;8.38;5.93;;;11.00;99.90;;;;;;5040454;28;20128;-73
2023/05/01 07:00:06;;;;;;;10.40;6.30;;;11.10;99.90;;;;;;5042492;28;20741;-73
2023/05/01 07:02:32;;;;;;;9.63;6.20;;;11.20;99.90;;;;;;5058821;28;20552;-74
2023/05/01 07:04:58;;;;;;;9.15;5.65;;;11.20;99.90;;;;;;5039099;28;20040;-71
2023/05/01 07:07:24;;;;;;;9.35;5.78;;;11.30;99.90;;;;;;5051177;28;20096;-72
2023/05/01 07:09:50;;;;;;;9.23;5.97;;;11.30;99.90;;;;;;5073482;28;20060;-71
2023/05/01 07:12:16;;;;;;;9.68;5.50;;;11.40;99.90;;;;;;5047880;28;20047;-71
2023/05/01 07:14:42;;;;;;;8.32;5.53;;;11.50;99.90;;;;;;5075419;28;20093;-71
2023/05/01 07:17:08;;;;;;;10.45;5.80;;;11.70;99.90;;;;;;5048342;28;20549;-71
2023/05/01 07:19:34;;;;;;;10.10;5.32;;;11.80;99.90;;;;;;5041156;28;20092;-72
2023/05/01 07:22:00;;;;;;;8.68;5.72;;;12.00;99.90;;;;;;5077490;28;20052;-72
2023/05/01 07:24:26;;;;;;;9.48;6.20;;;12.00;99.90;;;;;;5030752;28;20040;-72
2023/05/01 07:26:52;;;;;;;10.20;6.40;;;12.10;99.90;;;;;;5076956;28;20044;-71
2023/05/01 07:29:18;;;;;;;10.85;6.20;;;12.10;99.90;;;;;;5061498;28;20040;-72
2023/05/01 07:31:47;;;;;;;9.98;6.28;;;12.20;99.90;;;;;;5041560;28;20236;-71
2023/05/01 07:34:13;;;;;;;10.45;6.57;;;12.30;99.90;;;;;;5057134;28;20051;-72
2023/05/01 07:36:38;;;;;;;11.95;6.30;;;12.30;99.90;;;;;;5048228;28;20044;-72
2023/05/01 07:39:05;;;;;;;10.25;6.22;;;12.30;99.90;;;;;;5075172;28;20182;-72
2023/05/01 07:41:31;;;;;;;9.30;6.05;;;12.30;99.90;;;;;;5053295;28;20044;-71
2023/05/01 07:44:00;;;;;;;8.40;5.95;;;12.30;99.90;;;;;;5078552;28;20112;-71
2023/05/01 07:46:25;;;;;;;9.73;6.22;;;12.40;99.90;;;;;;5076755;28;20065;-72
2023/05/01 07:48:51;;;;;;;11.05;6.72;;;12.30;99.90;;;;;;5060875;28;20144;-71
2023/05/01 07:51:17;;;;;;;10.68;6.35;;;12.30;99.90;;;;;;5076111;28;20660;-72
2023/05/01 07:53:45;;;;;;;8.75;5.70;;;12.40;99.90;;;;;;5042143;28;20032;-71
2023/05/01 07:56:10;;;;;;;11.90;6.10;;;12.40;99.90;;;;;;5041593;28;20078;-72
2023/05/01 07:58:39;;;;;;;10.93;6.60;;;12.40;99.90;;;;;;5057895;28;20036;-71
2023/05/01 08:01:06;;;;;;;10.75;7.20;;;12.50;99.90;;;;;;5074463;28;20577;-72
2023/05/01 08:03:31;;;;;;;8.32;5.93;;;12.50;99.90;;;;;;5059144;28;20737;-71
2023/05/01 08:05:57;;;;;;;9.88;6.47;;;12.60;99.90;;;;;;5057106;28;20052;-71
2023/05/01 08:08:33;;;;;;;9.27;5.70;;;12.70;99.90;;;;;;5076790;28;20074;-71
2023/05/01 08:10:59;;;;;;;8.85;6.25;;;12.80;99.90;;;;;;5046831;28;20059;-73
2023/05/01 08:13:25;;;;;;;8.95;5.50;;;12.90;99.60;;;;;;5054454;28;20567;-74
2023/05/01 08:15:51;;;;;;;9.85;5.50;;;13.00;99.60;;;;;;5059510;28;20032;-74
2023/05/01 08:18:19;;;;;;;8.77;5.80;;;13.00;99.50;;;;;;5077736;28;20068;-74
2023/05/01 08:20:47;;;;;;;8.57;5.90;;;13.20;98.40;;;;;;5041732;28;20513;-74
2023/05/01 08:23:14;;;;;;;10.45;6.10;;;13.30;97.90;;;;;;5068407;28;20060;-74
2023/05/01 08:25:40;;;;;;;12.50;5.32;;;13.40;97.00;;;;;;5057103;28;20066;-74
2023/05/01 08:28:05;;;;;;;9.02;5.55;;;13.60;96.20;;;;;;5051949;28;20044;-74
2023/05/01 08:30:31;;;;;;;10.45;6.07;;;13.70;95.60;;;;;;5075690;28;20132;-74
2023/05/01 08:32:57;;;;;;;8.27;5.90;;;13.80;95.00;;;;;;5042258;28;20534;-74
2023/05/01 08:35:23;;;;;;;9.73;5.72;;;13.90;93.80;;;;;;5092845;28;20079;-75
2023/05/01 08:37:48;;;;;;;10.77;5.40;;;13.90;93.60;;;;;;5030721;28;20273;-75
2023/05/01 08:40:14;;;;;;;10.13;5.43;;;14.00;93.30;;;;;;5090033;28;20036;-75
2023/05/01 08:42:41;;;;;;;11.60;5.60;;;14.10;93.10;;;;;;5041942;28;20043;-73
2023/05/01 08:45:08;;;;;;;8.30;5.32;;;14.30;93.50;;;;;;5050543;28;20048;-72
2023/05/01 08:47:39;;;;;;;8.65;5.38;;;14.50;92.40;;;;;;5058042;28;20060;-72
2023/05/01 08:50:12;;;;;;;6.93;4.97;;;14.60;91.80;;;;;;5075383;28;20136;-73
2023/05/01 08:52:43;;;;;;;10.10;4.65;;;14.70;91.70;;;;;;5073707;28;20052;-72
2023/05/01 08:55:13;;;;;;;8.95;4.60;;;15.00;91.60;;;;;;5053932;28;20063;-72
2023/05/01 08:57:49;;;;;;;;;;;15.20;90.20;;;;;;5054878;28;20056;-72
2023/05/01 09:00:20;;;;;;;8.68;5.22;;;15.40;85.30;;;;;;5071627;28;20342;-72
2023/05/01 09:02:50;;;;;;;9.15;4.72;;;15.60;88.90;;;;;;5055673;28;20079;-72
2023/05/01 09:05:17;;;;;;;8.57;4.90;;;15.70;87.40;;;;;;5052012;28;20071;-73
2023/05/01 09:07:45;;;;;;;9.23;5.22;;;15.90;85.90;;;;;;5049931;28;20110;-72
2023/05/01 09:10:12;;;;;;;9.02;5.22;;;15.90;83.60;;;;;;5045044;28;20036;-71
2023/05/01 09:12:39;;;;;;;8.85;4.95;;;16.00;81.50;;;;;;5055933;28;20062;-72
2023/05/01 09:15:06;;;;;;;7.40;4.85;;;16.00;78.60;;;;;;5052781;28;20144;-72
2023/05/01 09:17:34;;;;;;;6.85;3.53;;;16.00;81.00;;;;;;5055056;28;20098;-72
2023/05/01 09:20:06;;;;;;;7.00;4.50;;;16.20;80.40;;;;;;5068553;28;20074;-75
2023/05/01 09:22:33;;;;;;;8.02;4.07;;;16.50;80.90;;;;;;5055237;28;20040;-75
2023/05/01 09:24:59;;;;;;;5.55;3.80;;;16.60;75.10;;;;;;5074905;28;20052;-75
2023/05/01 09:27:32;;;;;;;7.40;3.95;;;16.80;74.00;;;;;;5049240;28;20055;-75
2023/05/01 09:29:58;;;;;;;5.82;3.40;;;16.80;73.10;;;;;;5038953;28;20052;-75
2023/05/01 09:32:29;;;;;;;6.05;3.70;;;16.80;72.50;;;;;;5048358;28;20055;-75
2023/05/01 09:35:08;;;;;;;10.45;3.05;;;16.90;72.90;;;;;;5057015;28;20044;-75
2023/05/01 09:37:34;;;;;;;6.30;2.97;;;17.00;72.40;;;;;;5054878;28;20036;-75
2023/05/01 09:40:08;;;;;;;5.70;2.60;;;17.10;71.60;;;;;;5069040;28;20035;-75
2023/05/01 09:42:40;;;;;;;6.38;2.63;;;17.20;71.00;;;;;;5040689;28;20120;-75
2023/05/01 09:45:15;;;;;;;6.05;2.60;;;17.20;68.50;;;;;;5066417;28;20047;-77
2023/05/01 09:47:42;;;;;;;5.72;2.63;;;17.30;68.60;;;;;;5056474;28;20423;-80
2023/05/01 09:50:09;;;;;;;5.10;2.20;;;17.30;68.10;;;;;;5058449;28;20109;-81
2023/05/01 09:52:35;;;;;;;5.30;2.55;;;17.50;70.60;;;;;;5039600;28;20052;-79
2023/05/01 09:55:13;;;;;;;5.38;3.42;;;17.70;70.00;;;;;;5038086;28;20703;-80
2023/05/01 09:57:39;;;;;;;5.80;3.10;;;17.80;68.20;;;;;;5057471;28;20078;-79
2023/05/01 10:00:07;;;;;;;6.22;2.10;;;17.80;68.30;;;;;;5054501;28;20071;-79
2023/05/01 10:02:33;;;;;;;5.15;2.30;;;17.90;68.50;;;;;;5051174;28;20171;-78
2023/05/01 10:04:59;;;;;;;6.93;2.78;;;18.00;71.00;;;;;;5059750;28;20516;-78
2023/05/01 10:07:26;;;;;;;7.03;3.50;;;18.20;71.10;;;;;;5070872;28;20569;-80
2023/05/01 10:09:52;;;;;;;5.20;2.97;;;18.30;69.90;;;;;;5045929;28;20110;-79
2023/05/01 10:12:29;;;;;;;6.60;2.75;;;18.40;69.70;;;;;;5053592;28;20649;-79
2023/05/01 10:14:56;;;;;;;7.18;3.08;;;18.50;69.70;;;;;;5056042;28;20032;-78
2023/05/01 10:17:22;;;;;;;6.45;2.80;;;18.60;67.10;;;;;;5044435;28;20090;-79
2023/05/01 10:19:49;;;;;;;5.95;2.70;;;18.60;67.20;;;;;;5071344;28;20059;-80
2023/05/01 10:22:16;;;;;;;6.95;2.33;;;18.60;66.70;;;;;;5057628;28;20040;-80
2023/05/01 10:24:48;;;;;;;5.80;2.78;;;18.60;66.50;;;;;;5034279;28;20048;-79
2023/05/01 10:27:15;;;;;;;4.15;1.55;;;18.60;66.30;;;;;;5069437;28;20051;-78
2023/05/01 10:29:43;;;;;;;3.08;1.42;;;18.70;66.70;;;;;;5038750;28;20044;-78
2023/05/01 10:32:09;;;;;;;2.40;0.70;;;18.80;64.70;;;;;;5054092;28;20263;-79
2023/05/01 10:34:38;;;;;;;3.85;1.17;;;18.90;63.20;;;;;;5052432;28;20159;-79
2023/05/01 10:37:11;;;;;;;5.72;2.13;;;19.00;64.10;;;;;;5047932;28;20048;-78
2023/05/01 10:39:37;;;;;;;4.97;1.92;;;19.10;62.70;;;;;;5071985;28;20079;-79
2023/05/01 10:42:05;;;;;;;4.05;2.00;;;19.10;64.60;;;;;;5053971;28;20133;-79
2023/05/01 10:44:33;;;;;;;4.70;2.10;;;19.10;63.90;;;;;;5070308;28;20048;-78
2023/05/01 10:46:59;;;;;;;4.07;1.90;;;19.20;63.90;;;;;;5054222;28;20658;-79
2023/05/01 10:50:03;;;;;;;6.97;2.22;;;19.20;61.80;;;;;;5035245;28;20050;-79
2023/05/01 10:52:29;;;;;;;5.97;2.58;;;19.20;61.60;;;;;;5069731;28;20552;-78
2023/05/01 10:55:32;;;;;;;5.93;2.67;;;19.20;63.50;;;;;;5045299;28;20101;-78
2023/05/01 10:57:58;;;;;;;3.75;2.25;;;19.40;62.70;;;;;;5068258;28;20145;-78
2023/05/01 11:00:24;;;;;;;7.07;2.88;;;19.50;63.50;;;;;;5073988;28;20040;-80
2023/05/01 11:02:50;;;;;;;4.05;2.53;;;19.60;62.00;;;;;;5036424;28;20236;-79
2023/05/01 11:05:16;;;;;;;6.20;3.10;;;19.60;62.00;;;;;;5038278;28;20128;-79
2023/05/01 11:07:42;;;;;;;5.78;3.30;;;19.60;60.40;;;;;;5066268;28;20549;-79
2023/05/01 11:10:26;;;;;;;5.75;3.10;;;19.60;60.60;;;;;;5019087;28;20040;-79
2023/05/01 11:12:52;;;;;;;5.97;3.15;;;19.50;63.60;;;;;;5070868;28;20041;-78
2023/05/01 11:15:29;;;;;;;5.57;2.78;;;19.50;61.10;;;;;;5069598;28;20044;-78
2023/05/01 11:17:56;;;;;;;6.88;3.40;;;19.40;61.10;;;;;;5065495;28;21435;-79
2023/05/01 11:20:24;;;;;;;4.53;2.88;;;19.40;62.40;;;;;;5024261;28;20133;-78
2023/05/01 11:23:00;;;;;;;6.22;2.50;;;19.50;61.80;;;;;;5066290;28;20048;-79
2023/05/01 11:25:30;;;;;;;6.45;1.98;;;19.60;63.00;;;;;;5041333;28;20039;-78
2023/05/01 11:28:08;;;;;;;4.65;2.80;;;19.80;62.30;;;;;;5071053;28;20044;-79
2023/05/01 11:30:38;;;;;;;5.65;2.13;;;19.90;60.80;;;;;;5031599;28;20052;-79
2023/05/01 11:33:05;;;;;;;4.15;1.67;;;20.00;61.70;;;;;;5045662;28;20056;-81
2023/05/01 11:35:32;;;;;;;4.07;1.60;;;20.10;59.20;;;;;;5055255;28;20075;-81
2023/05/01 11:37:58;;;;;;;2.83;1.40;;;20.10;60.90;;;;;;5035979;28;20078;-81
2023/05/01 11:40:32;;;;;;;4.72;1.70;;;20.10;62.00;;;;;;5052361;28;20040;-81
2023/05/01 11:43:06;;;;;;;2.85;1.40;;;20.20;62.10;;;;;;5040827;28;20135;-81
2023/05/01 11:45:33;;;;;;;3.25;1.60;;;20.20;58.70;;;;;;5070934;28;20505;-81
2023/05/01 11:47:59;;;;;;;3.38;1.42;;;20.20;58.30;;;;;;5038594;28;20112;-80
2023/05/01 11:50:32;;;;;;;5.00;1.42;;;20.30;56.60;;;;;;5036507;28;20044;-80
2023/05/01 11:52:58;;;;;;;2.97;1.40;;;20.40;57.30;;;;;;5037885;28;20044;-81
2023/05/01 11:55:31;;;;;;;3.58;1.25;;;20.40;57.10;;;;;;5040170;28;20532;-79
2023/05/01 11:57:58;;;;;;;2.88;1.13;;;20.50;55.50;;;;;;5038577;28;20037;-81
2023/05/01 12:00:38;;;;;;;3.08;1.00;;;20.40;55.30;;;;;;5050181;28;20769;-78
2023/05/01 12:03:12;;;;;;;4.72;1.35;;;20.30;54.20;;;;;;5052741;28;20036;-81
2023/05/01 12:05:44;;;;;;;3.38;1.25;;;20.00;53.80;;;;;;5030793;28;20082;-77
2023/05/01 12:08:22;;;;;;;2.65;1.00;;;19.80;55.50;;;;;;5073105;28;20039;-77
2023/05/01 12:11:06;;;;;;;3.47;1.10;;;19.80;56.80;;;;;;5073888;28;21054;-82
2023/05/01 12:13:39;;;;;;;2.47;1.05;;;19.80;56.00;;;;;;5057646;28;20032;-77
2023/05/01 12:16:05;;;;;;;2.42;1.10;;;19.80;54.80;;;;;;5050423;28;20067;-77
2023/05/01 12:18:31;;;;;;;4.47;1.80;;;19.70;54.40;;;;;;5041909;28;20036;-79
2023/05/01 12:20:57;;;;;;;4.68;1.50;;;19.70;55.70;;;;;;5049403;28;20524;-77
2023/05/01 12:23:36;;;;;;;3.55;1.60;;;19.50;55.40;;;;;;5025158;28;20060;-77
2023/05/01 12:26:14;;;;;;;3.00;1.50;;;19.50;57.30;;;;;;5074421;28;20101;-77
2023/05/01 12:29:02;;;;;;;3.60;1.60;;;19.70;58.00;;;;;;5072453;28;20108;-78
2023/05/01 12:31:29;;;;;;;4.57;1.90;;;19.90;57.90;;;;;;5046080;28;20059;-77
2023/05/01 12:33:57;;;;;;;3.05;1.75;;;19.90;57.20;;;;;;5042301;28;20216;-80
2023/05/01 12:36:24;;;;;;;4.22;1.65;;;19.90;57.50;;;;;;5055686;28;20043;-80
2023/05/01 12:39:02;;;;;;;4.63;2.00;;;19.80;58.10;;;;;;5075827;28;21165;-80
2023/05/01 12:41:41;;;;;;;3.95;1.30;;;19.80;58.30;;;;;;5055448;28;20491;-80
2023/05/01 12:44:29;;;;;;;5.03;2.27;;;19.70;58.40;;;;;;5056610;28;20528;-81
2023/05/01 12:46:58;;;;;;;4.30;1.77;;;19.80;59.10;;;;;;5056526;28;20068;-77
2023/05/01 12:49:25;;;;;;;3.90;1.73;;;19.80;58.60;;;;;;5056587;28;20063;-77
2023/05/01 12:51:54;;;;;;;3.55;1.70;;;19.90;58.30;;;;;;5034535;28;20056;-76
2023/05/01 12:54:37;;;;;;;4.45;2.13;;;20.00;59.30;;;;;;5050940;28;20067;-77